You are not logged in, Click here to log in
機場資訊:RPLL Welcome to Taiwan Airways 台灣虛擬航空
ICAO: RPLL Country: 菲律賓馬尼拉
Latitude: 14.5123 Longitude: 121.017
Total Arrivals: 111 Total Departures: 113
Latest Arrival: BR277 (RCTP-RPLL)CHU. CHUHAO Latest Departure: BR278 (RPLL-RCTP)CHU. CHUHAO
Scenery:
METAR : RPLL 211200Z 12006KT 080V150 9999 FEW025 29/23 Q1009 NOSIG RMK A2980

尼諾伊·艾奎諾國際機場MNL